createdAt,value
2023-03-06T00:04:31.041Z,4.27
2023-03-06T00:09:32.830Z,4.24
2023-03-06T00:14:34.612Z,4.23
2023-03-06T00:19:36.408Z,4.18
2023-03-06T00:24:38.296Z,4.15
2023-03-06T00:29:40.116Z,4.13
2023-03-06T00:34:42.175Z,4.15
2023-03-06T00:39:44.284Z,4.20
2023-03-06T00:44:46.492Z,4.20
2023-03-06T00:49:48.388Z,4.22
2023-03-06T00:54:50.248Z,4.20
2023-03-06T00:59:52.015Z,4.24
2023-03-06T01:04:55.880Z,4.20
2023-03-06T01:09:57.641Z,4.21
2023-03-06T01:14:59.460Z,4.21
2023-03-06T01:20:01.279Z,4.21
2023-03-06T01:25:03.058Z,4.19
2023-03-06T01:30:05.721Z,4.06
2023-03-06T01:35:07.801Z,4.05
2023-03-06T01:40:12.435Z,3.99
2023-03-06T01:45:14.173Z,3.94
2023-03-06T01:50:16.211Z,3.94
2023-03-06T01:55:22.017Z,3.93
2023-03-06T02:00:26.933Z,3.88
2023-03-06T02:05:28.700Z,3.91
2023-03-06T02:10:30.616Z,3.93
2023-03-06T02:15:32.415Z,3.92
2023-03-06T02:20:48.734Z,3.93
2023-03-06T02:25:52.954Z,3.94
2023-03-06T02:30:56.252Z,3.94
2023-03-06T02:36:00.819Z,3.93
2023-03-06T02:41:06.931Z,3.86
2023-03-06T02:46:08.779Z,3.80
2023-03-06T02:51:10.584Z,3.76
2023-03-06T02:56:12.549Z,3.76
2023-03-06T03:01:16.693Z,3.70
2023-03-06T03:06:18.660Z,3.66
2023-03-06T03:11:20.875Z,3.67
2023-03-06T03:16:22.733Z,3.62
2023-03-06T03:21:24.648Z,3.62
2023-03-06T03:26:29.008Z,3.56
2023-03-06T03:31:48.619Z,3.49
2023-03-06T03:36:50.597Z,3.47
2023-03-06T03:41:52.728Z,3.43
2023-03-06T03:46:55.109Z,3.48
2023-03-06T03:51:58.055Z,3.45
2023-03-06T03:57:02.623Z,3.38
2023-03-06T04:02:08.774Z,3.35
2023-03-06T04:07:18.250Z,3.32
2023-03-06T04:12:20.989Z,3.31
2023-03-06T04:17:23.036Z,3.34
2023-03-06T04:28:03.052Z,3.27
2023-03-06T04:33:06.117Z,3.23
2023-03-06T04:38:08.296Z,3.23
2023-03-06T04:43:10.319Z,3.15
2023-03-06T04:48:14.883Z,3.11
2023-03-06T04:53:19.624Z,3.06
2023-03-06T04:58:21.636Z,3.00
2023-03-06T05:03:23.391Z,3.01
2023-03-06T05:08:25.163Z,3.02
2023-03-06T05:13:28.237Z,3.04
2023-03-06T05:18:30.332Z,3.03
2023-03-06T05:23:34.070Z,2.97
2023-03-06T05:28:35.980Z,2.88
2023-03-06T05:33:37.802Z,2.86
2023-03-06T05:38:39.544Z,2.86
2023-03-06T05:43:41.730Z,2.87
2023-03-06T05:48:45.302Z,2.87
2023-03-06T05:53:48.239Z,2.88
2023-03-06T05:58:51.015Z,2.95
2023-03-06T06:03:52.840Z,2.93
2023-03-06T06:08:55.873Z,2.92
2023-03-06T06:13:57.709Z,3.02
2023-03-06T06:18:59.523Z,3.04
2023-03-06T06:24:01.293Z,3.10
2023-03-06T06:29:04.779Z,3.16
2023-03-06T06:34:08.040Z,3.26
2023-03-06T06:39:14.268Z,3.37
2023-03-06T06:44:16.336Z,3.39
2023-03-06T06:49:18.082Z,3.36
2023-03-06T06:54:20.236Z,3.34
2023-03-06T06:59:23.843Z,3.44
2023-03-06T07:04:25.769Z,3.45
2023-03-06T07:09:27.621Z,3.50
2023-03-06T07:14:29.434Z,3.61
2023-03-06T07:19:31.289Z,3.65
2023-03-06T07:24:33.353Z,3.75
2023-03-06T07:29:35.188Z,3.81
2023-03-06T07:34:37.845Z,3.91
2023-03-06T07:39:39.745Z,3.94
2023-03-06T07:44:41.728Z,3.94
2023-03-06T07:49:43.472Z,4.01
2023-03-06T07:54:45.212Z,4.06
2023-03-06T07:59:46.960Z,4.13
2023-03-06T08:04:53.634Z,4.20
2023-03-06T08:09:55.388Z,4.28
2023-03-06T08:14:57.206Z,4.35
2023-03-06T08:19:59.088Z,4.40
2023-03-06T08:25:01.014Z,4.47
2023-03-06T08:30:03.135Z,4.49
2023-03-06T08:35:05.562Z,4.56
2023-03-06T08:40:08.148Z,4.59
2023-03-06T08:45:10.194Z,4.64
2023-03-06T08:50:12.128Z,4.63
2023-03-06T08:55:15.147Z,4.71
2023-03-06T09:00:17.649Z,4.79
2023-03-06T09:05:19.546Z,4.86
2023-03-06T09:10:23.979Z,4.93
2023-03-06T09:15:26.101Z,5.06
2023-03-06T09:20:27.893Z,5.26
2023-03-06T09:25:29.652Z,5.46
2023-03-06T09:30:31.478Z,5.66
2023-03-06T09:35:33.295Z,5.79
2023-03-06T09:40:51.271Z,5.95
2023-03-06T09:45:53.881Z,5.97
2023-03-06T09:51:03.121Z,5.97
2023-03-06T09:56:18.021Z,5.96
2023-03-06T10:01:26.975Z,6.10
2023-03-06T10:06:33.215Z,6.26
2023-03-06T10:11:54.186Z,6.60
2023-03-06T10:16:56.468Z,6.78
2023-03-06T10:22:19.284Z,6.76
2023-03-06T10:27:39.964Z,6.64
2023-03-06T10:32:57.934Z,6.61
2023-03-06T10:38:12.473Z,6.57
2023-03-06T10:43:14.447Z,6.61
2023-03-06T10:48:20.426Z,6.55
2023-03-06T10:53:25.941Z,6.64
2023-03-06T10:58:30.519Z,6.65
2023-03-06T11:03:33.296Z,6.58
2023-03-06T11:08:35.725Z,6.33
2023-03-06T11:13:39.768Z,6.22
2023-03-06T11:18:42.930Z,6.08
2023-03-06T11:23:47.229Z,6.04
2023-03-06T11:29:04.530Z,6.25
2023-03-06T11:34:12.427Z,6.60
2023-03-06T11:39:36.394Z,6.61
2023-03-06T11:44:44.028Z,6.58
2023-03-06T11:49:51.564Z,6.40
2023-03-06T11:54:56.430Z,6.09
2023-03-06T12:00:10.468Z,6.09
2023-03-06T12:10:51.899Z,6.31
2023-03-06T12:16:13.234Z,6.29
2023-03-06T12:21:48.886Z,6.34
2023-03-06T12:27:13.304Z,6.40
2023-03-06T12:32:41.433Z,6.39
2023-03-06T12:37:46.212Z,6.46
2023-03-06T12:43:06.286Z,6.59
2023-03-06T12:48:29.594Z,6.63
2023-03-06T12:53:33.308Z,6.64
2023-03-06T12:58:46.513Z,6.64
2023-03-06T13:04:13.138Z,6.71
2023-03-06T13:09:26.669Z,6.55
2023-03-06T13:14:42.182Z,6.43
2023-03-06T13:19:48.652Z,6.30
2023-03-06T13:25:19.145Z,6.10
2023-03-06T13:30:39.504Z,5.72
2023-03-06T13:35:41.387Z,5.52
2023-03-06T13:40:43.282Z,5.55
2023-03-06T13:45:47.177Z,5.59
2023-03-06T13:50:49.911Z,5.64
2023-03-06T14:01:44.501Z,5.72
2023-03-06T14:06:50.906Z,5.78
2023-03-06T14:12:06.888Z,5.94
2023-03-06T14:17:20.641Z,6.09
2023-03-06T14:22:24.536Z,6.13
2023-03-06T14:27:42.360Z,6.05
2023-03-06T14:32:45.011Z,5.91
2023-03-06T14:37:50.308Z,5.82
2023-03-06T14:43:27.902Z,5.94
2023-03-06T14:48:40.375Z,5.99
2023-03-06T14:53:45.005Z,5.95
2023-03-06T14:58:55.863Z,6.05
2023-03-06T15:04:00.375Z,6.20
2023-03-06T15:09:13.360Z,6.36
2023-03-06T15:14:20.185Z,6.37
2023-03-06T15:19:22.842Z,6.29
2023-03-06T15:24:36.314Z,6.18
2023-03-06T15:29:38.452Z,6.13
2023-03-06T15:34:40.418Z,6.10
2023-03-06T15:39:43.080Z,6.04
2023-03-06T15:44:50.625Z,5.98
2023-03-06T15:49:53.372Z,5.97
2023-03-06T15:54:55.175Z,5.82
2023-03-06T15:59:59.767Z,5.77
2023-03-06T16:05:02.614Z,5.88
2023-03-06T16:10:04.701Z,5.77
2023-03-06T16:15:17.564Z,5.69
2023-03-06T16:20:22.103Z,5.67
2023-03-06T16:25:27.820Z,5.25
2023-03-06T16:30:32.180Z,5.01
2023-03-06T16:35:34.101Z,4.92
2023-03-06T16:40:41.528Z,4.70
2023-03-06T16:45:44.005Z,4.55
2023-03-06T16:50:46.093Z,4.50
2023-03-06T16:55:48.092Z,4.47
2023-03-06T17:00:49.921Z,4.49
2023-03-06T17:05:51.722Z,4.60
2023-03-06T17:10:53.480Z,4.68
2023-03-06T17:15:59.530Z,4.76
2023-03-06T17:21:01.459Z,4.58
2023-03-06T17:26:08.566Z,4.64
2023-03-06T17:31:22.428Z,4.68
2023-03-06T17:36:24.219Z,4.61
2023-03-06T17:41:26.663Z,4.53
2023-03-06T17:46:28.645Z,4.52
2023-03-06T17:51:30.468Z,4.35
2023-03-06T17:56:32.319Z,4.23
2023-03-06T18:01:34.199Z,4.17
2023-03-06T18:06:36.073Z,4.18
2023-03-06T18:11:37.843Z,4.18
2023-03-06T18:16:39.657Z,4.14
2023-03-06T18:21:41.464Z,4.16
2023-03-06T18:26:43.314Z,4.14
2023-03-06T18:31:46.999Z,4.14
2023-03-06T18:36:51.621Z,4.20
2023-03-06T18:41:53.585Z,4.20
2023-03-06T18:46:55.328Z,4.19
2023-03-06T18:51:57.138Z,4.13
2023-03-06T18:56:58.938Z,4.14
2023-03-06T19:02:00.693Z,4.28
2023-03-06T19:07:02.586Z,4.34
2023-03-06T19:12:04.753Z,4.33
2023-03-06T19:17:06.552Z,4.38
2023-03-06T19:22:08.294Z,4.70
2023-03-06T19:27:11.504Z,4.87
2023-03-06T19:32:13.409Z,4.79
2023-03-06T19:37:15.244Z,4.76
2023-03-06T19:42:17.614Z,4.74
2023-03-06T19:47:19.512Z,4.77
2023-03-06T19:52:21.357Z,4.76
2023-03-06T19:57:23.104Z,4.62
2023-03-06T20:02:27.198Z,4.57
2023-03-06T20:07:28.982Z,4.62
2023-03-06T20:17:52.973Z,4.63
2023-03-06T20:22:54.888Z,4.59
2023-03-06T20:27:56.715Z,4.56
2023-03-06T20:32:58.515Z,4.55
2023-03-06T20:38:00.797Z,4.46
2023-03-06T20:43:02.627Z,4.38
2023-03-06T20:48:04.428Z,4.34
2023-03-06T20:53:06.475Z,4.38
2023-03-06T20:58:08.365Z,4.52
2023-03-06T21:03:10.142Z,4.31
2023-03-06T21:08:11.911Z,4.18
2023-03-06T21:13:14.616Z,4.41
2023-03-06T21:18:16.445Z,4.43
2023-03-06T21:23:18.202Z,4.30
2023-03-06T21:28:19.929Z,4.26
2023-03-06T21:33:21.745Z,4.08
2023-03-06T21:38:23.604Z,4.02
2023-03-06T21:43:25.346Z,3.96
2023-03-06T21:48:27.111Z,3.92
2023-03-06T21:53:28.849Z,3.93
2023-03-06T21:58:31.540Z,3.90
2023-03-06T22:03:33.331Z,3.83
2023-03-06T22:08:35.112Z,3.87
2023-03-06T22:13:38.267Z,3.83
2023-03-06T22:18:40.415Z,3.78
2023-03-06T22:23:42.837Z,3.81
2023-03-06T22:28:45.029Z,3.76
2023-03-06T22:33:47.113Z,3.74
2023-03-06T22:38:49.507Z,3.76
2023-03-06T22:43:51.322Z,3.77
2023-03-06T22:48:55.226Z,3.74
2023-03-06T22:53:57.111Z,3.75
2023-03-06T22:58:59.533Z,3.76
2023-03-06T23:04:04.375Z,3.78
2023-03-06T23:09:16.155Z,3.79
2023-03-06T23:14:36.457Z,3.81
2023-03-06T23:19:56.885Z,3.84
2023-03-06T23:25:17.179Z,3.82
2023-03-06T23:30:19.117Z,3.87
2023-03-06T23:35:20.945Z,3.94
2023-03-06T23:40:22.705Z,3.97
2023-03-06T23:45:24.591Z,4.02
2023-03-06T23:50:26.409Z,4.07
2023-03-06T23:55:28.180Z,4.11
